createdAt,value
2019-03-23T00:01:12.942Z,14.87
2019-03-23T00:03:46.992Z,17.92
2019-03-23T00:06:30.263Z,8.13
2019-03-23T00:08:56.382Z,11.05
2019-03-23T00:11:30.058Z,10.78
2019-03-23T00:14:03.801Z,7.05
2019-03-23T00:16:37.842Z,6.47
2019-03-23T00:19:11.848Z,9.05
2019-03-23T00:21:47.128Z,5.45
2019-03-23T00:24:22.382Z,6.50
2019-03-23T00:26:55.966Z,7.72
2019-03-23T00:29:30.196Z,8.23
2019-03-23T00:32:05.275Z,11.85
2019-03-23T00:34:38.752Z,8.45
2019-03-23T00:37:12.785Z,5.85
2019-03-23T00:39:46.360Z,10.20
2019-03-23T00:42:20.892Z,5.17
2019-03-23T00:44:54.928Z,6.12
2019-03-23T00:47:28.520Z,5.25
2019-03-23T00:50:03.019Z,5.65
2019-03-23T00:52:38.035Z,5.80
2019-03-23T00:55:11.698Z,5.62
2019-03-23T00:57:45.083Z,5.42
2019-03-23T01:00:20.234Z,5.47
2019-03-23T01:02:55.266Z,5.65
2019-03-23T01:05:29.691Z,6.75
2019-03-23T01:08:03.556Z,5.17
2019-03-23T01:10:39.637Z,6.72
2019-03-23T01:13:13.313Z,8.83
2019-03-23T01:15:49.591Z,5.33
2019-03-23T01:18:25.174Z,6.50
2019-03-23T01:21:01.343Z,5.12
2019-03-23T01:23:35.111Z,6.60
2019-03-23T01:26:08.822Z,5.30
2019-03-23T01:28:42.936Z,12.13
2019-03-23T01:31:16.534Z,5.60
2019-03-23T01:33:50.070Z,6.58
2019-03-23T01:36:25.242Z,5.10
2019-03-23T01:38:58.403Z,5.83
2019-03-23T01:41:32.879Z,7.12
2019-03-23T01:44:06.627Z,7.40
2019-03-23T01:46:40.813Z,7.55
2019-03-23T01:49:15.794Z,6.80
2019-03-23T01:51:49.350Z,9.08
2019-03-23T01:54:23.687Z,6.65
2019-03-23T01:56:57.598Z,9.73
2019-03-23T01:59:31.092Z,7.28
2019-03-23T02:02:05.129Z,11.25
2019-03-23T02:04:38.722Z,10.03
2019-03-23T02:07:14.012Z,17.27
2019-03-23T02:09:47.483Z,18.87
2019-03-23T02:12:21.681Z,15.35
2019-03-23T02:14:54.918Z,22.30
2019-03-23T02:17:28.756Z,26.87
2019-03-23T02:20:02.387Z,29.45
2019-03-23T02:22:36.558Z,31.48
2019-03-23T02:25:12.036Z,33.38
2019-03-23T02:27:45.603Z,31.85
2019-03-23T02:30:19.331Z,32.33
2019-03-23T02:32:53.288Z,37.05
2019-03-23T02:35:27.240Z,32.00
2019-03-23T02:38:01.676Z,40.58
2019-03-23T02:40:36.484Z,33.75
2019-03-23T02:43:10.708Z,47.23
2019-03-23T02:45:44.370Z,42.70
2019-03-23T02:48:18.276Z,42.13
2019-03-23T02:50:52.332Z,44.98
2019-03-23T02:53:25.534Z,46.95
2019-03-23T02:55:59.833Z,45.88
2019-03-23T02:58:33.428Z,53.28
2019-03-23T03:01:07.251Z,61.42
2019-03-23T03:03:41.272Z,51.30
2019-03-23T03:06:15.186Z,58.15
2019-03-23T03:08:48.435Z,57.73
2019-03-23T03:11:21.578Z,53.48
2019-03-23T03:13:55.501Z,64.62
2019-03-23T03:16:29.432Z,63.23
2019-03-23T03:19:03.262Z,71.17
2019-03-23T03:21:36.567Z,67.70
2019-03-23T03:24:10.734Z,62.05
2019-03-23T03:26:44.374Z,74.37
2019-03-23T03:29:18.213Z,74.72
2019-03-23T03:31:52.537Z,69.47
2019-03-23T03:34:26.023Z,80.77
2019-03-23T03:36:59.927Z,76.35
2019-03-23T03:39:33.866Z,86.50
2019-03-23T03:42:07.821Z,79.70
2019-03-23T03:44:41.548Z,110.70
2019-03-23T03:47:15.730Z,89.92
2019-03-23T03:49:49.672Z,89.17
2019-03-23T03:52:23.720Z,96.45
2019-03-23T03:54:56.983Z,93.05
2019-03-23T03:57:31.005Z,102.65
2019-03-23T04:00:06.195Z,111.60
2019-03-23T04:02:40.748Z,109.07
2019-03-23T04:05:15.074Z,108.92
2019-03-23T04:07:49.072Z,118.13
2019-03-23T04:10:24.048Z,115.22
2019-03-23T04:12:58.469Z,123.62
2019-03-23T04:15:32.486Z,133.30
2019-03-23T04:18:07.615Z,126.18
2019-03-23T04:20:41.331Z,142.50
2019-03-23T04:23:15.247Z,135.40
2019-03-23T04:25:48.390Z,137.22
2019-03-23T04:28:22.269Z,152.80
2019-03-23T04:30:56.753Z,122.72
2019-03-23T04:33:29.949Z,135.90
2019-03-23T04:36:03.559Z,134.37
2019-03-23T04:38:37.813Z,135.85
2019-03-23T04:41:11.924Z,129.35
2019-03-23T04:43:46.348Z,128.30
2019-03-23T04:46:20.169Z,141.95
2019-03-23T04:48:54.015Z,144.53
2019-03-23T04:51:27.654Z,143.82
2019-03-23T04:54:01.090Z,149.27
2019-03-23T04:56:35.112Z,158.87
2019-03-23T04:59:08.595Z,150.53
2019-03-23T05:01:42.714Z,149.55
2019-03-23T05:04:16.306Z,151.12
2019-03-23T05:06:50.345Z,145.28
2019-03-23T05:09:24.580Z,117.22
2019-03-23T05:11:58.560Z,125.70
2019-03-23T05:14:32.223Z,112.35
2019-03-23T05:17:05.788Z,118.42
2019-03-23T05:19:39.871Z,108.83
2019-03-23T05:22:12.969Z,117.57
2019-03-23T05:24:46.877Z,119.77
2019-03-23T05:27:20.147Z,107.55
2019-03-23T05:29:53.655Z,107.65
2019-03-23T05:32:27.179Z,114.52
2019-03-23T05:35:01.011Z,103.32
2019-03-23T05:37:34.689Z,110.48
2019-03-23T05:40:08.886Z,123.87
2019-03-23T05:42:42.514Z,123.87
2019-03-23T05:45:16.857Z,122.55
2019-03-23T05:47:51.203Z,116.12
2019-03-23T05:50:25.422Z,102.78
2019-03-23T05:52:58.654Z,98.37
2019-03-23T05:55:32.898Z,90.20
2019-03-23T05:58:06.582Z,92.40
2019-03-23T06:00:40.150Z,95.87
2019-03-23T06:03:13.268Z,88.87
2019-03-23T06:05:47.260Z,84.85
2019-03-23T06:08:20.443Z,83.20
2019-03-23T06:10:54.450Z,83.97
2019-03-23T06:13:27.675Z,79.17
2019-03-23T06:16:01.676Z,79.40
2019-03-23T06:18:35.390Z,85.87
2019-03-23T06:21:08.970Z,87.35
2019-03-23T06:23:42.616Z,92.75
2019-03-23T06:26:16.232Z,80.38
2019-03-23T06:28:50.001Z,88.75
2019-03-23T06:31:24.045Z,89.35
2019-03-23T06:33:58.039Z,79.87
2019-03-23T06:36:31.628Z,93.82
2019-03-23T06:39:06.863Z,98.80
2019-03-23T06:41:40.762Z,81.67
2019-03-23T06:44:14.457Z,100.45
2019-03-23T06:46:47.547Z,93.75
2019-03-23T06:49:21.072Z,113.75
2019-03-23T06:51:54.360Z,111.35
2019-03-23T06:54:28.481Z,114.47
2019-03-23T06:57:02.011Z,107.20
2019-03-23T06:59:35.696Z,97.15
2019-03-23T07:02:09.308Z,120.62
2019-03-23T07:04:43.321Z,105.03
2019-03-23T07:07:18.216Z,95.97
2019-03-23T07:09:51.918Z,112.00
2019-03-23T07:12:25.567Z,108.00
2019-03-23T07:14:59.855Z,116.25
2019-03-23T07:17:33.347Z,126.55
2019-03-23T07:20:07.986Z,120.80
2019-03-23T07:22:41.749Z,141.62
2019-03-23T07:25:15.396Z,143.10
2019-03-23T07:27:49.420Z,135.25
2019-03-23T07:30:23.289Z,152.97
2019-03-23T07:32:56.704Z,152.87
2019-03-23T07:35:32.162Z,132.22
2019-03-23T07:38:05.896Z,123.25
2019-03-23T07:40:39.483Z,126.35
2019-03-23T07:43:13.229Z,128.20
2019-03-23T07:45:47.180Z,163.32
2019-03-23T07:48:21.367Z,119.00
2019-03-23T07:50:57.536Z,146.37
2019-03-23T07:53:31.161Z,137.30
2019-03-23T07:56:05.274Z,126.40
2019-03-23T07:58:38.952Z,125.58
2019-03-23T08:01:12.956Z,123.62
2019-03-23T08:03:46.678Z,120.25
2019-03-23T08:06:21.017Z,130.12
2019-03-23T08:08:55.860Z,129.42
2019-03-23T08:11:29.791Z,127.80
2019-03-23T08:14:03.785Z,124.12
2019-03-23T08:16:38.231Z,126.27
2019-03-23T08:19:12.417Z,118.05
2019-03-23T08:21:46.114Z,115.12
2019-03-23T08:24:19.306Z,123.75
2019-03-23T08:26:52.484Z,114.90
2019-03-23T08:29:26.743Z,125.33
2019-03-23T08:32:00.504Z,112.95
2019-03-23T08:34:34.207Z,121.92
2019-03-23T08:37:08.219Z,117.57
2019-03-23T08:39:48.508Z,106.05
2019-03-23T08:42:19.341Z,114.40
2019-03-23T08:44:53.545Z,113.22
2019-03-23T08:47:27.508Z,95.72
2019-03-23T08:50:01.149Z,99.00
2019-03-23T08:52:35.247Z,102.85
2019-03-23T08:55:08.653Z,101.15
2019-03-23T08:57:42.367Z,116.03
2019-03-23T09:00:18.347Z,102.22
2019-03-23T09:02:52.329Z,99.92
2019-03-23T09:05:26.031Z,95.65
2019-03-23T09:08:00.133Z,112.03
2019-03-23T09:10:33.854Z,99.35
2019-03-23T09:13:07.857Z,87.25
2019-03-23T09:15:42.024Z,104.38
2019-03-23T09:18:15.433Z,94.07
2019-03-23T09:20:49.156Z,105.35
2019-03-23T09:23:23.149Z,94.07
2019-03-23T09:25:57.241Z,87.57
2019-03-23T09:28:31.693Z,92.50
2019-03-23T09:31:05.922Z,86.82
2019-03-23T09:33:40.326Z,72.58
2019-03-23T09:36:14.256Z,81.65
2019-03-23T09:38:48.224Z,84.60
2019-03-23T09:41:21.411Z,78.70
2019-03-23T09:43:54.666Z,77.25
2019-03-23T09:46:28.358Z,70.87
2019-03-23T09:49:02.482Z,84.22
2019-03-23T09:51:36.660Z,75.50
2019-03-23T09:54:09.779Z,73.75
2019-03-23T09:56:43.567Z,69.85
2019-03-23T09:59:18.038Z,74.37
2019-03-23T10:01:52.259Z,74.45
2019-03-23T10:04:25.950Z,76.37
2019-03-23T10:07:00.004Z,76.97
2019-03-23T10:09:34.485Z,70.78
2019-03-23T10:12:08.944Z,80.40
2019-03-23T10:14:43.286Z,70.55
2019-03-23T10:17:17.695Z,78.10
2019-03-23T10:19:58.338Z,74.92
2019-03-23T10:22:33.179Z,81.12
2019-03-23T10:25:08.020Z,79.67
2019-03-23T10:27:41.401Z,78.83
2019-03-23T10:30:16.009Z,69.17
2019-03-23T10:32:49.952Z,72.55
2019-03-23T10:35:24.033Z,79.65
2019-03-23T10:37:58.119Z,76.50
2019-03-23T10:40:32.916Z,75.62
2019-03-23T10:43:07.198Z,73.10
2019-03-23T10:45:44.277Z,71.05
2019-03-23T10:48:16.626Z,65.60
2019-03-23T10:50:50.459Z,73.50
2019-03-23T10:53:24.541Z,72.27
2019-03-23T10:55:57.619Z,71.95
2019-03-23T10:58:31.327Z,62.45
2019-03-23T11:01:05.042Z,69.67
2019-03-23T11:03:38.748Z,74.17
2019-03-23T11:06:12.663Z,83.40
2019-03-23T11:08:46.684Z,85.10
2019-03-23T11:11:21.038Z,74.32
2019-03-23T11:13:55.027Z,76.10
2019-03-23T11:16:28.274Z,87.50
2019-03-23T11:19:02.015Z,78.85
2019-03-23T11:21:35.636Z,68.45
2019-03-23T11:24:09.723Z,81.10
2019-03-23T11:26:43.791Z,75.75
2019-03-23T11:29:17.029Z,72.45
2019-03-23T11:31:50.836Z,65.60
2019-03-23T11:34:25.058Z,71.15
2019-03-23T11:36:58.915Z,67.40
2019-03-23T11:39:32.855Z,69.57
2019-03-23T11:42:06.800Z,71.00
2019-03-23T11:44:40.130Z,73.13
2019-03-23T11:47:14.378Z,66.60
2019-03-23T11:49:48.394Z,68.60
2019-03-23T11:52:22.419Z,60.87
2019-03-23T11:54:56.027Z,63.73
2019-03-23T11:57:30.153Z,69.77
2019-03-23T12:00:04.148Z,63.70
2019-03-23T12:02:38.254Z,66.07
2019-03-23T12:05:11.487Z,74.93
2019-03-23T12:07:45.681Z,64.50
2019-03-23T12:10:19.761Z,70.20
2019-03-23T12:12:54.105Z,66.97
2019-03-23T12:15:30.244Z,62.97
2019-03-23T12:18:04.484Z,67.53
2019-03-23T12:20:38.288Z,64.73
2019-03-23T12:23:11.573Z,68.10
2019-03-23T12:25:45.543Z,69.50
2019-03-23T12:28:21.027Z,65.20
2019-03-23T12:30:55.594Z,61.87
2019-03-23T12:33:31.310Z,63.20
2019-03-23T12:36:05.281Z,71.00
2019-03-23T12:38:38.679Z,58.83
2019-03-23T12:41:22.724Z,68.30
2019-03-23T12:43:51.293Z,61.47
2019-03-23T12:46:26.567Z,68.47
2019-03-23T12:49:00.545Z,67.77
2019-03-23T12:51:36.858Z,69.33
2019-03-23T12:54:10.728Z,69.10
2019-03-23T12:56:44.330Z,63.23
2019-03-23T12:59:18.090Z,68.27
2019-03-23T13:01:52.093Z,79.20
2019-03-23T13:04:26.184Z,67.67
2019-03-23T13:07:00.208Z,67.57
2019-03-23T13:09:35.476Z,78.47
2019-03-23T13:12:09.162Z,76.07
2019-03-23T13:14:43.552Z,71.73
2019-03-23T13:17:19.942Z,77.27
2019-03-23T13:19:54.352Z,66.13
2019-03-23T13:22:28.074Z,65.80
2019-03-23T13:25:01.401Z,68.60
2019-03-23T13:27:35.716Z,63.77
2019-03-23T13:30:10.440Z,64.53
2019-03-23T13:32:44.616Z,65.90
2019-03-23T13:35:17.744Z,59.17
2019-03-23T13:37:51.553Z,61.77
2019-03-23T13:40:25.509Z,69.63
2019-03-23T13:42:59.945Z,65.80
2019-03-23T13:45:42.399Z,59.80
2019-03-23T13:48:09.189Z,64.40
2019-03-23T13:50:42.842Z,70.57
2019-03-23T13:53:17.131Z,60.07
2019-03-23T13:55:51.102Z,63.53
2019-03-23T13:58:24.658Z,60.70
2019-03-23T14:00:58.309Z,66.53
2019-03-23T14:03:31.534Z,67.07
2019-03-23T14:06:05.134Z,62.33
2019-03-23T14:08:39.375Z,74.50
2019-03-23T14:11:13.386Z,63.87
2019-03-23T14:13:50.257Z,66.53
2019-03-23T14:16:24.148Z,68.28
2019-03-23T14:18:58.586Z,73.05
2019-03-23T14:21:32.273Z,79.92
2019-03-23T14:24:06.311Z,72.12
2019-03-23T14:26:40.752Z,69.77
2019-03-23T14:29:14.048Z,71.62
2019-03-23T14:31:48.067Z,63.80
2019-03-23T14:34:21.304Z,82.53
2019-03-23T14:36:57.268Z,64.92
2019-03-23T14:39:31.506Z,68.17
2019-03-23T14:42:05.395Z,68.93
2019-03-23T14:44:39.154Z,68.07
2019-03-23T14:47:13.349Z,64.30
2019-03-23T14:49:47.462Z,72.03
2019-03-23T14:52:21.317Z,70.57
2019-03-23T14:54:55.957Z,63.90
2019-03-23T14:57:29.931Z,68.85
2019-03-23T15:00:04.617Z,69.37
2019-03-23T15:02:38.393Z,63.35
2019-03-23T15:05:12.073Z,64.82
2019-03-23T15:07:46.566Z,66.25
2019-03-23T15:10:19.891Z,63.68
2019-03-23T15:12:53.528Z,65.12
2019-03-23T15:15:27.092Z,68.12
2019-03-23T15:18:01.175Z,66.57
2019-03-23T15:20:35.289Z,59.18
2019-03-23T15:23:08.881Z,65.10
2019-03-23T15:25:42.951Z,73.22
2019-03-23T15:28:17.244Z,70.22
2019-03-23T15:30:51.360Z,65.67
2019-03-23T15:33:25.069Z,60.78
2019-03-23T15:35:59.578Z,64.30
2019-03-23T15:38:33.457Z,62.03
2019-03-23T15:41:07.669Z,57.88
2019-03-23T15:43:41.685Z,66.15
2019-03-23T15:46:15.355Z,59.90
2019-03-23T15:48:49.485Z,57.10
2019-03-23T15:51:23.495Z,55.73
2019-03-23T15:53:57.574Z,52.08
2019-03-23T15:56:31.231Z,56.98
2019-03-23T15:59:05.366Z,51.83
2019-03-23T16:01:39.388Z,50.90
2019-03-23T16:04:12.962Z,55.20
2019-03-23T16:06:47.109Z,57.33
2019-03-23T16:09:21.174Z,50.55
2019-03-23T16:11:55.259Z,49.67
2019-03-23T16:14:29.685Z,48.63
2019-03-23T16:17:05.156Z,50.58
2019-03-23T16:19:40.243Z,55.17
2019-03-23T16:22:13.359Z,52.80
2019-03-23T16:24:47.300Z,45.75
2019-03-23T16:27:21.849Z,52.73
2019-03-23T16:29:55.905Z,52.58
2019-03-23T16:32:29.634Z,50.78
2019-03-23T16:35:03.664Z,45.55
2019-03-23T16:37:37.357Z,49.77
2019-03-23T16:40:11.717Z,50.23
2019-03-23T16:42:45.843Z,52.43
2019-03-23T16:45:19.302Z,55.40
2019-03-23T16:47:56.360Z,52.38
2019-03-23T16:50:32.008Z,55.15
2019-03-23T16:53:07.607Z,52.90
2019-03-23T16:55:41.554Z,52.88
2019-03-23T16:58:16.282Z,57.65
2019-03-23T17:00:50.691Z,61.02
2019-03-23T17:03:24.509Z,63.55
2019-03-23T17:05:58.334Z,73.97
2019-03-23T17:08:32.383Z,63.98
2019-03-23T17:11:05.624Z,64.62
2019-03-23T17:13:40.196Z,59.15
2019-03-23T17:16:13.876Z,68.10
2019-03-23T17:18:47.533Z,68.90
2019-03-23T17:21:23.016Z,63.87
2019-03-23T17:23:57.055Z,69.20
2019-03-23T17:26:31.427Z,81.25
2019-03-23T17:29:05.893Z,59.83
2019-03-23T17:31:40.021Z,69.70
2019-03-23T17:34:14.440Z,62.15
2019-03-23T17:36:48.103Z,67.08
2019-03-23T17:39:22.656Z,68.00
2019-03-23T17:41:56.849Z,59.30
2019-03-23T17:44:31.970Z,59.53
2019-03-23T17:47:05.309Z,56.13
2019-03-23T17:49:39.405Z,58.85
2019-03-23T17:52:13.204Z,45.40
2019-03-23T17:54:46.819Z,44.40
2019-03-23T17:57:20.104Z,44.73
2019-03-23T17:59:54.390Z,46.25
2019-03-23T18:02:28.180Z,46.33
2019-03-23T18:05:02.389Z,53.92
2019-03-23T18:07:37.115Z,50.52
2019-03-23T18:10:10.983Z,56.35
2019-03-23T18:12:45.180Z,46.98
2019-03-23T18:15:19.662Z,46.25
2019-03-23T18:17:53.240Z,48.92
2019-03-23T18:20:27.729Z,39.67
2019-03-23T18:23:01.442Z,39.48
2019-03-23T18:25:35.470Z,40.85
2019-03-23T18:28:09.563Z,38.88
2019-03-23T18:30:43.850Z,42.23
2019-03-23T18:33:17.786Z,44.03
2019-03-23T18:35:52.040Z,32.90
2019-03-23T18:38:26.597Z,34.38
2019-03-23T18:40:59.848Z,38.90
2019-03-23T18:43:34.014Z,33.67
2019-03-23T18:46:07.801Z,34.23
2019-03-23T18:48:41.652Z,37.78
2019-03-23T18:51:15.806Z,34.55
2019-03-23T18:53:50.132Z,29.12
2019-03-23T18:56:22.973Z,25.95
2019-03-23T18:58:56.780Z,27.25
2019-03-23T19:01:30.691Z,28.30
2019-03-23T19:04:03.950Z,26.30
2019-03-23T19:06:38.300Z,29.72
2019-03-23T19:09:12.035Z,23.65
2019-03-23T19:11:45.611Z,22.90
2019-03-23T19:14:20.132Z,25.20
2019-03-23T19:16:54.132Z,32.90
2019-03-23T19:19:27.768Z,22.25
2019-03-23T19:22:01.747Z,22.82
2019-03-23T19:24:35.337Z,18.77
2019-03-23T19:27:09.081Z,20.25
2019-03-23T19:29:43.265Z,21.55
2019-03-23T19:32:17.518Z,24.60
2019-03-23T19:34:50.756Z,21.12
2019-03-23T19:37:24.515Z,27.02
2019-03-23T19:39:58.613Z,21.75
2019-03-23T19:42:33.128Z,26.75
2019-03-23T19:45:07.291Z,22.60
2019-03-23T19:47:41.845Z,19.32
2019-03-23T19:50:15.875Z,19.82
2019-03-23T19:52:50.079Z,24.65
2019-03-23T19:55:24.207Z,26.95
2019-03-23T19:57:57.516Z,18.77
2019-03-23T20:00:31.950Z,26.65
2019-03-23T20:03:05.949Z,22.42
2019-03-23T20:05:39.841Z,19.92
2019-03-23T20:08:12.751Z,28.27
2019-03-23T20:10:46.423Z,22.60
2019-03-23T20:13:20.157Z,20.55
2019-03-23T20:15:54.286Z,24.25
2019-03-23T20:18:28.722Z,23.38
2019-03-23T20:21:02.745Z,28.02
2019-03-23T20:23:36.479Z,22.25
2019-03-23T20:26:10.475Z,25.75
2019-03-23T20:28:44.306Z,26.30
2019-03-23T20:31:18.444Z,35.73
2019-03-23T20:33:53.081Z,26.97
2019-03-23T20:36:27.165Z,38.23
2019-03-23T20:39:01.515Z,32.40
2019-03-23T20:41:37.137Z,27.65
2019-03-23T20:44:11.276Z,26.82
2019-03-23T20:46:45.056Z,35.65
